createdAt,value
2022-09-23T00:00:16.055Z,49.64
2022-09-23T00:03:00.931Z,49.35
2022-09-23T00:05:46.039Z,49.24
2022-09-23T00:08:30.826Z,49.29
2022-09-23T00:11:15.575Z,49.39
2022-09-23T00:14:00.367Z,50.04
2022-09-23T00:16:45.286Z,50.06
2022-09-23T00:19:30.345Z,50.32
2022-09-23T00:22:15.195Z,50.58
2022-09-23T00:24:59.999Z,50.61
2022-09-23T00:27:44.782Z,50.70
2022-09-23T00:30:29.558Z,50.84
2022-09-23T00:33:14.377Z,51.17
2022-09-23T00:35:59.244Z,51.30
2022-09-23T00:38:43.937Z,51.60
2022-09-23T00:41:28.935Z,51.68
2022-09-23T00:44:13.630Z,51.57
2022-09-23T00:46:58.332Z,51.99
2022-09-23T00:49:42.995Z,52.15
2022-09-23T00:52:27.762Z,52.27
2022-09-23T00:55:12.546Z,52.71
2022-09-23T00:57:57.287Z,52.37
2022-09-23T01:00:41.941Z,52.25
2022-09-23T01:03:26.621Z,52.02
2022-09-23T01:06:11.274Z,52.11
2022-09-23T01:08:56.047Z,51.82
2022-09-23T01:11:40.949Z,51.94
2022-09-23T01:14:25.564Z,51.78
2022-09-23T01:17:10.520Z,51.72
2022-09-23T01:19:55.273Z,51.27
2022-09-23T01:22:39.965Z,51.90
2022-09-23T01:25:24.702Z,51.30
2022-09-23T01:28:09.545Z,50.94
2022-09-23T01:30:54.325Z,51.28
2022-09-23T01:33:39.153Z,51.40
2022-09-23T01:36:24.051Z,50.68
2022-09-23T01:39:08.681Z,51.54
2022-09-23T01:41:53.733Z,51.07
2022-09-23T01:44:38.437Z,50.69
2022-09-23T01:47:23.376Z,50.69
2022-09-23T01:50:08.133Z,50.90
2022-09-23T01:52:52.861Z,50.91
2022-09-23T01:55:37.592Z,50.78
2022-09-23T01:58:22.327Z,50.86
2022-09-23T02:01:07.313Z,50.84
2022-09-23T02:03:52.428Z,51.03
2022-09-23T02:06:37.228Z,50.68
2022-09-23T02:09:21.875Z,51.24
2022-09-23T02:12:06.729Z,51.13
2022-09-23T02:14:51.402Z,50.98
2022-09-23T02:17:36.247Z,51.48
2022-09-23T02:20:20.992Z,51.75
2022-09-23T02:23:05.665Z,50.86
2022-09-23T02:25:50.535Z,51.48
2022-09-23T02:28:35.260Z,51.72
2022-09-23T02:31:20.112Z,52.03
2022-09-23T02:34:05.208Z,52.13
2022-09-23T02:36:49.947Z,51.97
2022-09-23T02:39:34.671Z,52.48
2022-09-23T02:42:19.450Z,52.01
2022-09-23T02:45:04.114Z,51.55
2022-09-23T02:47:49.045Z,51.56
2022-09-23T02:50:33.758Z,52.06
2022-09-23T02:53:18.767Z,51.82
2022-09-23T02:56:03.539Z,51.95
2022-09-23T02:58:48.310Z,51.99
2022-09-23T03:01:33.105Z,52.12
2022-09-23T03:04:17.837Z,52.04
2022-09-23T03:07:02.685Z,51.86
2022-09-23T03:09:47.598Z,51.62
2022-09-23T03:12:32.510Z,51.88
2022-09-23T03:15:17.300Z,52.05
2022-09-23T03:18:02.067Z,51.64
2022-09-23T03:20:46.876Z,51.63
2022-09-23T03:23:31.734Z,51.38
2022-09-23T03:26:16.590Z,52.07
2022-09-23T03:29:01.392Z,51.88
2022-09-23T03:31:46.267Z,51.66
2022-09-23T03:34:31.544Z,51.42
2022-09-23T03:37:16.517Z,51.02
2022-09-23T03:40:01.278Z,51.20
2022-09-23T03:42:46.054Z,50.34
2022-09-23T03:45:31.000Z,50.78
2022-09-23T03:48:16.260Z,50.57
2022-09-23T03:51:00.960Z,50.89
2022-09-23T03:53:45.751Z,50.77
2022-09-23T03:56:30.577Z,51.16
2022-09-23T03:59:15.358Z,51.82
2022-09-23T04:02:01.476Z,52.65
2022-09-23T04:04:46.066Z,53.30
2022-09-23T04:07:30.845Z,52.47
2022-09-23T04:10:15.560Z,53.13
2022-09-23T04:13:00.380Z,52.76
2022-09-23T04:15:45.194Z,52.97
2022-09-23T04:18:30.106Z,53.03
2022-09-23T04:21:14.906Z,53.20
2022-09-23T04:23:59.520Z,52.52
2022-09-23T04:26:44.364Z,52.50
2022-09-23T04:29:29.074Z,52.10
2022-09-23T04:32:13.838Z,52.41
2022-09-23T04:34:58.581Z,52.37
2022-09-23T04:37:43.496Z,52.95
2022-09-23T04:40:28.384Z,52.32
2022-09-23T04:43:13.678Z,51.60
2022-09-23T04:45:58.308Z,51.76
2022-09-23T04:48:43.047Z,52.16
2022-09-23T04:51:27.885Z,52.59
2022-09-23T04:54:12.488Z,52.45
2022-09-23T04:56:57.294Z,52.22
2022-09-23T04:59:42.069Z,52.63
2022-09-23T05:02:27.079Z,52.68
2022-09-23T05:05:11.766Z,52.03
2022-09-23T05:07:56.504Z,52.25
2022-09-23T05:10:41.289Z,53.01
2022-09-23T05:13:26.388Z,53.07
2022-09-23T05:16:11.250Z,52.39
2022-09-23T05:18:55.984Z,52.06
2022-09-23T05:21:40.891Z,51.16
2022-09-23T05:24:25.621Z,51.34
2022-09-23T05:27:10.388Z,51.83
2022-09-23T05:29:55.147Z,52.52
2022-09-23T05:32:39.961Z,52.76
2022-09-23T05:35:24.645Z,51.52
2022-09-23T05:38:09.453Z,51.90
2022-09-23T05:40:54.183Z,52.45
2022-09-23T05:43:38.888Z,52.78
2022-09-23T05:46:23.771Z,52.79
2022-09-23T05:49:08.502Z,52.38
2022-09-23T05:51:53.876Z,51.36
2022-09-23T05:54:38.607Z,51.20
2022-09-23T05:57:23.325Z,50.87
2022-09-23T06:00:08.125Z,49.69
2022-09-23T06:02:52.884Z,50.60
2022-09-23T06:05:37.494Z,50.39
2022-09-23T06:08:22.297Z,50.58
2022-09-23T06:11:07.131Z,50.03
2022-09-23T06:13:51.814Z,49.51
2022-09-23T06:16:36.717Z,49.53
2022-09-23T06:19:21.819Z,48.92
2022-09-23T06:22:06.575Z,48.46
2022-09-23T06:24:51.200Z,49.22
2022-09-23T06:27:35.910Z,49.77
2022-09-23T06:30:20.577Z,50.36
2022-09-23T06:33:05.274Z,50.12
2022-09-23T06:35:57.619Z,48.93
2022-09-23T06:38:44.351Z,42.60
2022-09-23T06:41:29.143Z,37.25
2022-09-23T06:44:13.915Z,34.36
2022-09-23T06:46:58.571Z,32.22
2022-09-23T06:49:43.264Z,30.35
2022-09-23T06:52:27.921Z,30.84
2022-09-23T06:55:12.570Z,28.78
2022-09-23T06:57:57.200Z,26.50
2022-09-23T07:00:41.890Z,25.52
2022-09-23T07:03:26.552Z,22.93
2022-09-23T07:06:11.229Z,22.45
2022-09-23T07:08:55.908Z,22.59
2022-09-23T07:11:40.654Z,22.72
2022-09-23T07:14:25.382Z,21.12
2022-09-23T07:17:09.948Z,21.43
2022-09-23T07:19:54.874Z,21.92
2022-09-23T07:22:39.631Z,23.35
2022-09-23T07:25:24.156Z,24.42
2022-09-23T07:28:08.933Z,25.74
2022-09-23T07:31:00.105Z,27.00
2022-09-23T07:33:45.773Z,28.01
2022-09-23T07:36:30.464Z,29.53
2022-09-23T07:39:15.271Z,28.93
2022-09-23T07:41:59.988Z,30.89
2022-09-23T07:44:44.681Z,31.67
2022-09-23T07:47:29.464Z,31.85
2022-09-23T07:50:14.100Z,32.08
2022-09-23T07:52:59.031Z,33.53
2022-09-23T07:55:43.733Z,32.48
2022-09-23T07:58:28.505Z,32.50
2022-09-23T08:01:13.286Z,33.30
2022-09-23T08:03:57.923Z,32.98
2022-09-23T08:06:42.604Z,32.49
2022-09-23T08:09:27.513Z,33.01
2022-09-23T08:12:15.950Z,33.52
2022-09-23T08:15:00.983Z,33.22
2022-09-23T08:17:45.833Z,33.68
2022-09-23T08:20:30.543Z,35.07
2022-09-23T08:23:15.423Z,34.88
2022-09-23T08:26:00.217Z,35.05
2022-09-23T08:28:44.960Z,34.31
2022-09-23T08:31:29.641Z,34.48
2022-09-23T08:34:14.382Z,35.21
2022-09-23T08:36:59.245Z,35.85
2022-09-23T08:39:44.021Z,33.78
2022-09-23T08:42:28.807Z,33.82
2022-09-23T08:45:13.483Z,34.69
2022-09-23T08:47:58.339Z,34.82
2022-09-23T08:50:43.009Z,34.80
2022-09-23T08:53:27.984Z,34.77
2022-09-23T08:56:12.790Z,35.10
2022-09-23T08:58:57.720Z,34.71
2022-09-23T09:01:42.669Z,34.54
2022-09-23T09:04:27.883Z,34.39
2022-09-23T09:07:35.292Z,34.88
2022-09-23T09:10:17.661Z,35.84
2022-09-23T09:13:02.373Z,34.42
2022-09-23T09:15:47.287Z,35.33
2022-09-23T09:18:31.845Z,34.25
2022-09-23T09:21:16.653Z,33.62
2022-09-23T09:24:01.421Z,33.65
2022-09-23T09:26:46.334Z,34.04
2022-09-23T09:29:35.297Z,34.18
2022-09-23T09:32:21.296Z,35.72
2022-09-23T09:35:06.035Z,35.13
2022-09-23T09:37:53.515Z,35.77
2022-09-23T09:40:38.754Z,36.70
2022-09-23T09:43:23.741Z,36.93
2022-09-23T09:46:09.082Z,36.27
2022-09-23T09:48:54.325Z,36.65
2022-09-23T09:51:38.931Z,35.80
2022-09-23T09:54:23.786Z,35.88
2022-09-23T09:57:08.518Z,35.50
2022-09-23T09:59:53.197Z,35.75
2022-09-23T10:02:38.043Z,35.28
2022-09-23T10:05:22.710Z,34.96
2022-09-23T10:08:07.549Z,34.35
2022-09-23T10:10:52.465Z,35.37
2022-09-23T10:13:37.524Z,35.43
2022-09-23T10:16:22.404Z,35.60
2022-09-23T10:19:07.351Z,34.97
2022-09-23T10:21:52.454Z,34.99
2022-09-23T10:24:37.207Z,35.45
2022-09-23T10:27:21.999Z,35.67
2022-09-23T10:30:06.815Z,36.13
2022-09-23T10:32:51.554Z,36.21
2022-09-23T10:35:36.217Z,36.29
2022-09-23T10:38:20.956Z,36.31
2022-09-23T10:41:05.648Z,36.35
2022-09-23T10:43:50.978Z,36.76
2022-09-23T10:46:35.742Z,36.10
2022-09-23T10:49:20.339Z,37.68
2022-09-23T10:52:05.053Z,36.90
2022-09-23T10:54:49.949Z,36.33
2022-09-23T10:57:34.721Z,36.23
2022-09-23T11:00:19.494Z,36.39
2022-09-23T11:03:04.351Z,36.17
2022-09-23T11:05:49.171Z,36.35
2022-09-23T11:08:33.967Z,34.75
2022-09-23T11:11:18.756Z,35.26
2022-09-23T11:14:03.606Z,34.62
2022-09-23T11:16:48.335Z,35.98
2022-09-23T11:19:33.065Z,35.78
2022-09-23T11:22:17.614Z,34.93
2022-09-23T11:25:02.424Z,35.62
2022-09-23T11:27:47.160Z,35.18
2022-09-23T11:30:31.865Z,35.01
2022-09-23T11:33:16.744Z,35.13
2022-09-23T11:36:01.421Z,34.94
2022-09-23T11:38:46.218Z,34.62
2022-09-23T11:41:30.922Z,32.93
2022-09-23T11:44:15.725Z,33.38
2022-09-23T11:47:00.409Z,33.07
2022-09-23T11:49:45.163Z,33.08
2022-09-23T11:52:29.896Z,32.84
2022-09-23T11:55:22.244Z,33.55
2022-09-23T11:58:17.592Z,32.05
2022-09-23T12:01:06.552Z,32.34
2022-09-23T12:03:51.352Z,33.30
2022-09-23T12:06:36.487Z,31.92
2022-09-23T12:09:35.725Z,32.96
2022-09-23T12:12:27.255Z,32.65
2022-09-23T12:15:12.500Z,32.10
2022-09-23T12:17:57.513Z,30.09
2022-09-23T12:20:42.823Z,31.65
2022-09-23T12:23:27.552Z,30.24
2022-09-23T12:26:12.244Z,29.77
2022-09-23T12:28:56.866Z,30.58
2022-09-23T12:31:43.076Z,27.63
2022-09-23T12:34:29.042Z,28.08
2022-09-23T12:37:13.669Z,28.64
2022-09-23T12:39:58.552Z,29.19
2022-09-23T12:42:43.267Z,28.42
2022-09-23T12:45:28.034Z,28.23
2022-09-23T12:48:12.748Z,27.14
2022-09-23T12:50:57.496Z,27.61
2022-09-23T12:53:42.175Z,28.60
2022-09-23T12:56:27.144Z,28.76
2022-09-23T12:59:12.354Z,29.20
2022-09-23T13:01:57.111Z,28.68
2022-09-23T13:04:42.410Z,29.33
2022-09-23T13:07:27.202Z,29.83
2022-09-23T13:10:11.814Z,29.13
2022-09-23T13:12:56.491Z,28.75
2022-09-23T13:15:41.374Z,26.53
2022-09-23T13:18:26.127Z,29.10
2022-09-23T13:21:10.985Z,28.47
2022-09-23T13:23:55.845Z,29.11
2022-09-23T13:26:40.465Z,28.37
2022-09-23T13:29:25.960Z,28.05
2022-09-23T13:32:10.784Z,28.15
2022-09-23T13:34:55.530Z,27.75
2022-09-23T13:37:40.198Z,29.67
2022-09-23T13:40:25.289Z,28.98
2022-09-23T13:43:10.260Z,28.69
2022-09-23T13:45:55.089Z,28.51
2022-09-23T13:48:39.590Z,27.24
2022-09-23T13:51:24.346Z,27.60
2022-09-23T13:54:09.116Z,28.18
2022-09-23T13:56:53.796Z,27.96
2022-09-23T13:59:38.746Z,29.10
2022-09-23T14:02:23.408Z,28.57
2022-09-23T14:05:08.303Z,29.40
2022-09-23T14:07:53.011Z,29.79
2022-09-23T14:10:37.848Z,28.61
2022-09-23T14:13:25.682Z,28.92
2022-09-23T14:16:11.150Z,29.15
2022-09-23T14:18:55.926Z,28.33
2022-09-23T14:21:40.651Z,29.86
2022-09-23T14:24:25.452Z,29.91
2022-09-23T14:27:10.036Z,26.74
2022-09-23T14:29:54.859Z,28.40
2022-09-23T14:32:39.552Z,28.94
2022-09-23T14:35:24.451Z,28.12
2022-09-23T14:38:09.158Z,28.97
2022-09-23T14:40:54.112Z,28.30
2022-09-23T14:43:38.874Z,29.40
2022-09-23T14:46:23.674Z,29.37
2022-09-23T14:49:08.454Z,29.53
2022-09-23T14:51:53.454Z,29.34
2022-09-23T14:54:38.300Z,29.95
2022-09-23T14:57:23.007Z,30.47
2022-09-23T15:00:07.788Z,29.98
2022-09-23T15:02:52.558Z,29.64
2022-09-23T15:05:37.493Z,29.99
2022-09-23T15:08:22.264Z,30.12
2022-09-23T15:11:08.305Z,29.33
2022-09-23T15:13:53.407Z,29.63
2022-09-23T15:16:38.157Z,30.56
2022-09-23T15:19:22.975Z,30.51
2022-09-23T15:22:07.560Z,30.93
2022-09-23T15:24:52.357Z,31.16
2022-09-23T15:27:36.959Z,30.99
2022-09-23T15:30:21.922Z,30.73
2022-09-23T15:33:06.732Z,31.25
2022-09-23T15:35:51.488Z,32.01
2022-09-23T15:38:36.375Z,31.97
2022-09-23T15:41:21.039Z,32.30
2022-09-23T15:44:05.889Z,33.13
2022-09-23T15:46:50.565Z,32.88
2022-09-23T15:49:35.359Z,31.97
2022-09-23T15:52:20.048Z,32.35
2022-09-23T15:55:04.809Z,33.30
2022-09-23T15:57:49.429Z,32.64
2022-09-23T16:00:34.292Z,32.03
2022-09-23T16:03:19.346Z,31.97
2022-09-23T16:06:04.074Z,32.37
2022-09-23T16:08:48.954Z,34.00
2022-09-23T16:11:33.613Z,33.78
2022-09-23T16:14:18.441Z,32.67
2022-09-23T16:17:03.084Z,32.14
2022-09-23T16:19:47.807Z,31.36
2022-09-23T16:22:32.655Z,32.77
2022-09-23T16:25:17.336Z,35.00
2022-09-23T16:28:02.165Z,35.99
2022-09-23T16:30:46.986Z,36.62
2022-09-23T16:33:31.808Z,36.34
2022-09-23T16:36:16.474Z,35.85
2022-09-23T16:39:01.297Z,36.71
2022-09-23T16:41:45.917Z,37.13
2022-09-23T16:44:30.847Z,35.81
2022-09-23T16:47:15.465Z,34.77
2022-09-23T16:50:00.144Z,33.98
2022-09-23T16:52:44.788Z,33.52
2022-09-23T16:55:29.720Z,33.98
2022-09-23T16:58:14.362Z,33.86
2022-09-23T17:00:59.139Z,32.74
2022-09-23T17:03:43.808Z,32.76
2022-09-23T17:06:28.564Z,32.80
2022-09-23T17:09:13.283Z,32.77
2022-09-23T17:11:58.028Z,33.66
2022-09-23T17:14:42.846Z,34.21
2022-09-23T17:17:27.516Z,35.32
2022-09-23T17:20:12.359Z,37.81
2022-09-23T17:22:57.015Z,38.19
2022-09-23T17:25:41.804Z,38.17
2022-09-23T17:28:26.482Z,37.83
2022-09-23T17:31:11.314Z,37.17
2022-09-23T17:33:55.979Z,36.65
2022-09-23T17:36:40.727Z,36.77
2022-09-23T17:39:25.562Z,37.56
2022-09-23T17:42:10.353Z,38.21
2022-09-23T17:44:55.215Z,38.19
2022-09-23T17:47:41.928Z,37.17
2022-09-23T17:50:26.765Z,37.81
2022-09-23T17:53:11.339Z,38.39
2022-09-23T17:55:56.103Z,38.13
2022-09-23T17:58:40.763Z,37.96
2022-09-23T18:01:25.514Z,38.71
2022-09-23T18:04:10.599Z,38.04
2022-09-23T18:06:55.368Z,38.13
2022-09-23T18:09:40.148Z,37.51
2022-09-23T18:12:24.828Z,37.04
2022-09-23T18:15:09.621Z,36.51
2022-09-23T18:17:54.331Z,36.22
2022-09-23T18:20:39.053Z,35.77
2022-09-23T18:23:26.094Z,35.88
2022-09-23T18:26:11.018Z,36.12
2022-09-23T18:28:55.774Z,36.56
2022-09-23T18:31:40.548Z,36.61
2022-09-23T18:34:25.315Z,36.82
2022-09-23T18:37:15.609Z,37.05
2022-09-23T18:40:01.009Z,36.77
2022-09-23T18:42:45.831Z,36.78
2022-09-23T18:45:30.522Z,37.40
2022-09-23T18:48:15.238Z,37.69
2022-09-23T18:50:59.921Z,37.46
2022-09-23T18:53:45.128Z,38.18
2022-09-23T18:56:30.258Z,38.38
2022-09-23T18:59:15.247Z,38.42
2022-09-23T19:02:00.042Z,39.21
2022-09-23T19:04:45.181Z,39.01
2022-09-23T19:07:29.990Z,39.35
2022-09-23T19:10:14.754Z,39.81
2022-09-23T19:12:59.492Z,39.90
2022-09-23T19:15:44.229Z,40.04
2022-09-23T19:18:28.965Z,40.70
2022-09-23T19:21:13.674Z,40.13
2022-09-23T19:23:58.461Z,40.60
2022-09-23T19:26:43.380Z,41.01
2022-09-23T19:29:28.170Z,40.75
2022-09-23T19:32:12.906Z,41.32
2022-09-23T19:34:57.677Z,40.73
2022-09-23T19:37:42.376Z,41.07
2022-09-23T19:40:27.082Z,40.88
2022-09-23T19:43:11.937Z,41.35
2022-09-23T19:45:56.586Z,42.07
2022-09-23T19:48:41.374Z,41.77
2022-09-23T19:51:26.213Z,42.46
2022-09-23T19:54:11.006Z,42.76
2022-09-23T19:56:55.705Z,41.90
2022-09-23T19:59:40.339Z,42.02
2022-09-23T20:02:25.382Z,42.39
2022-09-23T20:05:12.142Z,42.16
2022-09-23T20:07:57.420Z,42.76
2022-09-23T20:10:42.834Z,42.91
2022-09-23T20:13:27.695Z,42.65
2022-09-23T20:16:12.523Z,42.35
2022-09-23T20:18:57.077Z,42.29
2022-09-23T20:21:41.976Z,42.27
2022-09-23T20:24:26.738Z,42.29
2022-09-23T20:27:11.539Z,42.42
2022-09-23T20:29:56.182Z,41.95
2022-09-23T20:32:44.615Z,42.55
2022-09-23T20:35:30.048Z,41.94
2022-09-23T20:38:14.811Z,41.80
2022-09-23T20:40:59.567Z,41.57
2022-09-23T20:43:44.184Z,41.46
2022-09-23T20:46:29.070Z,42.06
2022-09-23T20:49:14.280Z,40.74
2022-09-23T20:51:59.054Z,40.82
2022-09-23T20:54:43.815Z,39.98
2022-09-23T20:57:28.490Z,40.29
2022-09-23T21:00:13.335Z,40.21
2022-09-23T21:02:58.190Z,39.89
2022-09-23T21:05:42.979Z,39.81
2022-09-23T21:08:27.791Z,39.51
2022-09-23T21:11:12.695Z,39.19
2022-09-23T21:13:57.306Z,39.20
2022-09-23T21:16:42.183Z,39.52
2022-09-23T21:19:26.849Z,39.33
2022-09-23T21:22:11.707Z,38.68
2022-09-23T21:28:01.253Z,39.30
2022-09-23T21:30:51.109Z,39.12
2022-09-23T21:33:36.533Z,40.09
2022-09-23T21:36:21.312Z,39.97
2022-09-23T21:39:05.990Z,40.71
2022-09-23T21:41:50.755Z,40.97
2022-09-23T21:44:35.607Z,41.65
2022-09-23T21:47:20.485Z,41.19
2022-09-23T21:50:05.195Z,41.36
2022-09-23T21:52:49.906Z,42.12
2022-09-23T21:55:34.702Z,41.52
2022-09-23T21:58:19.527Z,42.05
2022-09-23T22:01:04.287Z,41.50
2022-09-23T22:03:48.941Z,41.88
2022-09-23T22:06:33.574Z,42.17
2022-09-23T22:09:18.293Z,42.51
2022-09-23T22:12:02.997Z,42.74
2022-09-23T22:14:47.697Z,42.63
2022-09-23T22:17:32.546Z,42.72
2022-09-23T22:20:17.247Z,43.81
2022-09-23T22:23:02.140Z,43.62
2022-09-23T22:25:46.720Z,44.35
2022-09-23T22:28:31.657Z,45.38
2022-09-23T22:31:16.470Z,45.68
2022-09-23T22:34:01.913Z,46.80
2022-09-23T22:36:46.542Z,47.24
2022-09-23T22:39:31.624Z,47.62
2022-09-23T22:42:16.547Z,47.93
2022-09-23T22:45:01.162Z,48.50
2022-09-23T22:47:46.154Z,48.38
2022-09-23T22:50:31.344Z,48.92
2022-09-23T22:53:16.221Z,48.41
2022-09-23T22:56:01.061Z,48.82
2022-09-23T22:58:45.725Z,49.00
2022-09-23T23:01:30.752Z,49.12
2022-09-23T23:04:15.929Z,48.39
2022-09-23T23:07:00.667Z,48.59
2022-09-23T23:09:45.455Z,48.22
2022-09-23T23:12:30.247Z,48.63
2022-09-23T23:15:14.897Z,49.23
2022-09-23T23:17:59.780Z,47.96
2022-09-23T23:20:44.431Z,48.63
2022-09-23T23:23:29.274Z,49.15
2022-09-23T23:26:13.879Z,49.54
2022-09-23T23:28:58.598Z,49.71
2022-09-23T23:31:43.279Z,49.47
2022-09-23T23:34:28.192Z,49.99
2022-09-23T23:37:13.923Z,50.50
2022-09-23T23:40:00.846Z,50.71
2022-09-23T23:42:45.636Z,50.97
2022-09-23T23:45:30.432Z,50.68
2022-09-23T23:48:15.341Z,50.51
2022-09-23T23:51:00.163Z,50.53
2022-09-23T23:53:44.932Z,49.66
2022-09-23T23:56:29.712Z,50.43
2022-09-23T23:59:14.496Z,50.29
